Time;durP1;ratioP1;P1;durP2;ratioP2;P2;SDS_P1;SDS_P2;PMS_P1;PMS_P2;Temp;Humidity;BMP_temperature;BMP_pressure;BME280_temperature;BME280_humidity;BME280_pressure;Samples;Min_cycle;Max_cycle;Signal;HPM_P1;HPM_P2
2021/08/11 00:04:00;;;;;;;;;;;19.00;99.90;;;18.10;79.15;96003.69;10290311;28;2418;-76
2021/08/11 00:09:03;;;;;;;;;;;19.00;99.90;;;17.92;79.64;95993.88;10281418;28;2746;-78
2021/08/11 00:14:06;;;;;;;;;;;18.90;99.90;;;17.90;79.74;95995.31;10272106;28;2353;-77
2021/08/11 00:19:08;;;;;;;;;;;18.90;99.90;;;17.85;79.62;96003.63;10287233;28;2520;-76
2021/08/11 00:24:11;;;;;;;;;;;18.80;99.90;;;17.74;79.99;96006.59;10287307;28;2350;-78
2021/08/11 00:29:14;;;;;;;;;;;18.70;99.90;;;17.76;80.16;96007.13;10276037;28;2524;-77
2021/08/11 00:34:17;;;;;;;;;;;18.70;99.90;;;17.76;80.34;96017.19;10278658;28;2561;-79
2021/08/11 00:39:19;;;;;;;;;;;18.70;99.90;;;17.89;79.69;96027.16;10308072;28;2587;-77
2021/08/11 00:44:22;;;;;;;;;;;18.80;99.90;;;18.00;79.01;96027.66;10314607;28;2460;-77
2021/08/11 00:49:25;;;;;;;;;;;18.80;99.90;;;18.02;78.33;96017.28;10322206;28;1716;-79
2021/08/11 00:54:27;;;;;;;;;;;18.90;99.90;;;17.92;78.79;96010.19;10311229;28;1139;-78
2021/08/11 00:59:30;;;;;;;;;;;18.80;99.90;;;17.92;78.81;96006.69;10340034;28;2408;-76
2021/08/11 01:04:33;;;;;;;;;;;18.80;99.90;;;17.92;78.98;96009.41;10290008;28;1936;-77
2021/08/11 01:09:35;;;;;;;;;;;18.80;99.90;;;17.80;78.77;96008.06;10280778;28;2558;-77
2021/08/11 01:14:40;;;;;;;;;;;18.80;99.90;;;18.05;78.61;96024.81;10280321;28;2581;-78
2021/08/11 01:19:54;;;;;;;;;;;18.80;99.90;;;17.94;79.39;96031.63;10278516;28;2539;-77
2021/08/11 01:24:57;;;;;;;;;;;18.80;99.90;;;18.07;78.47;96034.28;10289545;28;2561;-78
2021/08/11 01:29:59;;;;;;;;;;;18.90;99.90;;;18.15;78.43;96034.63;10284011;28;2475;-77
2021/08/11 01:35:02;;;;;;;;;;;19.00;99.90;;;18.12;78.27;96025.16;10287308;28;2539;-77
2021/08/11 01:40:05;;;;;;;;;;;19.00;99.90;;;17.95;79.20;96023.19;10282754;28;2955;-77
2021/08/11 01:45:11;;;;;;;;;;;19.00;99.90;;;17.85;79.21;96018.00;10280592;28;2086;-78
2021/08/11 01:50:13;;;;;;;;;;;18.90;99.90;;;17.75;80.59;96023.72;10290721;28;2507;-79
2021/08/11 01:55:16;;;;;;;;;;;18.70;99.90;;;17.74;80.84;96022.13;10284655;28;2915;-77
2021/08/11 02:00:19;;;;;;;;;;;18.60;99.90;;;17.75;80.91;96021.81;10276586;28;3042;-78
2021/08/11 02:05:21;;;;;;;;;;;18.60;99.90;;;17.66;80.80;96018.22;10275989;28;2570;-77
2021/08/11 02:10:24;;;;;;;;;;;18.60;99.90;;;17.65;81.41;96019.34;10278679;28;2419;-77
2021/08/11 02:15:27;;;;;;;;;;;18.50;99.90;;;17.64;81.35;96015.03;10283626;28;2483;-77
2021/08/11 02:20:29;;;;;;;;;;;18.50;99.90;;;17.64;81.15;96014.22;10280509;28;2578;-77
2021/08/11 02:25:32;;;;;;;;;;;18.50;99.90;;;17.68;81.06;96015.97;10272803;28;2440;-78
2021/08/11 02:30:35;;;;;;;;;;;18.60;99.90;;;17.59;81.28;96008.91;10275686;28;2478;-76
2021/08/11 02:35:38;;;;;;;;;;;18.50;99.90;;;17.60;81.50;96013.22;10291499;28;2602;-78
2021/08/11 02:40:40;;;;;;;;;;;18.50;99.90;;;17.73;80.75;96024.03;10287047;28;2420;-76
2021/08/11 02:45:43;;;;;;;;;;;18.50;99.90;;;17.83;80.23;96026.50;10280596;28;2513;-77
2021/08/11 02:50:46;;;;;;;;;;;18.60;99.90;;;17.96;79.64;96015.81;10282113;28;2522;-77
2021/08/11 02:55:48;;;;;;;;;;;18.70;99.90;;;17.88;79.90;96024.72;10291414;28;2440;-77
2021/08/11 03:00:51;;;;;;;;;;;18.80;99.90;;;17.86;80.20;96016.09;10300784;28;2523;-78
2021/08/11 03:05:54;;;;;;;;;;;18.70;99.90;;;18.01;79.58;96024.66;10292005;28;2526;-78
2021/08/11 03:10:57;;;;;;;;;;;18.80;99.90;;;17.87;80.37;96021.22;10296120;28;2535;-77
2021/08/11 03:15:59;;;;;;;;;;;18.70;99.90;;;17.96;79.80;96018.53;10292473;28;2488;-77
2021/08/11 03:21:02;;;;;;;;;;;18.80;99.90;;;17.95;79.22;96020.47;10298261;28;2425;-78
2021/08/11 03:26:05;;;;;;;;;;;18.80;99.90;;;18.03;79.04;96021.59;10289142;28;2468;-77
2021/08/11 03:31:08;;;;;;;;;;;18.80;99.90;;;17.96;79.43;96010.38;10287329;28;2420;-77
2021/08/11 03:36:10;;;;;;;;;;;18.80;99.90;;;17.83;80.18;96012.09;10290429;28;2500;-77
2021/08/11 03:41:13;;;;;;;;;;;18.80;99.90;;;17.70;80.91;96013.78;10276595;28;2544;-79
2021/08/11 03:46:16;;;;;;;;;;;18.70;99.90;;;17.64;81.55;96008.78;10275615;28;2532;-78
2021/08/11 03:51:19;;;;;;;;;;;18.60;99.90;;;17.62;82.07;96011.00;10270393;28;2896;-77
2021/08/11 03:56:22;;;;;;;;;;;18.50;99.90;;;17.61;82.24;96004.75;10267166;28;2573;-76
2021/08/11 04:01:25;;;;;;;;;;;18.50;99.90;;;17.65;82.14;96015.81;10260863;28;2512;-79
2021/08/11 04:06:28;;;;;;;;;;;18.50;99.90;;;17.63;82.11;96010.69;10264481;28;2535;-77
2021/08/11 04:11:31;;;;;;;;;;;18.50;99.90;;;17.61;81.98;96021.06;10274271;28;2578;-78
2021/08/11 04:16:38;;;;;;;;;;;18.50;99.90;;;17.51;82.72;96019.44;10271450;28;2513;-76
2021/08/11 04:21:41;;;;;;;;;;;18.50;99.90;;;17.41;83.94;96029.75;10270740;28;2601;-78
2021/08/11 04:26:43;;;;;;;;;;;18.40;99.90;;;17.58;82.82;96021.72;10275564;28;2677;-76
2021/08/11 04:31:46;;;;;;;;;;;18.40;99.90;;;17.71;82.29;96031.72;10274105;28;2602;-79
2021/08/11 04:36:49;;;;;;;;;;;18.50;99.90;;;17.82;81.43;96027.63;10266149;28;2483;-78
2021/08/11 04:41:52;;;;;;;;;;;18.60;99.90;;;17.97;81.00;96034.53;10265602;28;2489;-78
2021/08/11 04:46:55;;;;;;;;;;;18.70;99.90;;;18.21;80.02;96031.44;10275131;28;2448;-78
2021/08/11 04:51:58;;;;;;;;;;;18.90;99.90;;;18.35;79.17;96036.75;10267468;28;2441;-78
2021/08/11 04:57:01;;;;;;;;;;;19.10;99.90;;;18.56;78.36;96036.94;10267755;28;2399;-77
2021/08/11 05:02:03;;;;;;;;;;;19.30;99.90;;;18.68;77.92;96037.16;10274223;28;2554;-79
2021/08/11 05:07:06;;;;;;;;;;;19.50;99.90;;;18.93;76.68;96032.03;10275055;28;2611;-76
2021/08/11 05:12:09;;;;;;;;;;;19.60;99.90;;;19.09;75.91;96033.16;10278285;28;2519;-76
2021/08/11 05:17:12;;;;;;;;;;;19.80;99.90;;;19.31;74.78;96035.69;10276291;28;2482;-78
2021/08/11 05:22:14;;;;;;;;;;;20.00;99.90;;;19.96;71.00;96031.06;10285086;28;2473;-78
2021/08/11 05:27:17;;;;;;;;;;;20.30;99.90;;;20.32;69.81;96038.75;10277766;28;2435;-78
2021/08/11 05:32:20;;;;;;;;;;;20.70;99.90;;;20.24;70.11;96034.97;10280887;28;2451;-78
2021/08/11 05:37:23;;;;;;;;;;;20.80;99.90;;;20.31;69.76;96036.38;10270799;28;2559;-77
2021/08/11 05:42:25;;;;;;;;;;;20.90;99.90;;;20.37;69.47;96035.06;10284656;28;2539;-78
2021/08/11 05:47:28;;;;;;;;;;;21.00;99.90;;;20.64;68.10;96044.72;10280733;28;2559;-76
2021/08/11 05:52:31;;;;;;;;;;;21.20;99.90;;;20.82;66.39;96043.47;10278044;28;2519;-78
2021/08/11 05:57:34;;;;;;;;;;;21.30;99.90;;;21.09;64.26;96042.13;10285918;28;1939;-78
2021/08/11 06:02:36;;;;;;;;;;;21.50;99.90;;;21.34;63.50;96048.53;10289564;28;2484;-81
2021/08/11 06:07:39;;;;;;;;;;;21.80;99.90;;;21.73;61.52;96043.66;10293353;28;2601;-79
2021/08/11 06:12:42;;;;;;;;;;;22.00;99.90;;;21.93;59.08;96041.97;10307506;28;2428;-80
2021/08/11 06:17:45;;;;;;;;;;;22.20;99.90;;;21.63;57.92;96047.63;10314629;28;2551;-80
2021/08/11 06:22:48;;;;;;;;;;;22.40;99.90;;;22.10;55.37;96050.81;10307141;28;2599;-80
2021/08/11 06:27:51;;;;;;;;;;;22.60;99.90;;;22.30;55.95;96048.31;10305743;28;2514;-79
2021/08/11 06:32:53;;;;;;;;;;;22.70;99.90;;;22.64;53.13;96047.84;10300381;28;2620;-80
2021/08/11 06:37:58;;;;;;;;;;;22.90;99.90;;;22.58;53.63;96049.22;10298515;28;2445;-80
2021/08/11 06:43:02;;;;;;;;;;;23.10;99.90;;;22.35;50.77;96045.34;10291290;28;2502;-82
2021/08/11 06:48:05;;;;;;;;;;;23.20;99.90;;;22.76;50.40;96054.44;10283762;28;2464;-82
2021/08/11 06:53:09;;;;;;;;;;;23.20;99.90;;;23.23;51.68;96046.50;10278083;28;2923;-82
2021/08/11 06:58:11;;;;;;;;;;;23.50;99.90;;;23.24;50.78;96047.28;10302256;28;2467;-82
2021/08/11 07:03:14;;;;;;;;;;;23.70;99.90;;;23.73;48.00;96056.94;10304249;28;2400;-83
2021/08/11 07:08:19;;;;;;;;;;;24.00;99.90;;;23.94;48.74;96058.66;10329415;28;2572;-80
2021/08/11 07:13:22;;;;;;;;;;;24.30;99.90;;;24.24;48.38;96048.03;10308121;28;2531;-79
2021/08/11 07:18:25;;;;;;;;;;;24.50;99.90;;;24.55;47.78;96044.47;10287308;28;2610;-81
2021/08/11 07:23:28;;;;;;;;;;;24.70;99.90;;;24.25;47.44;96042.19;10284847;28;2389;-82
2021/08/11 07:28:30;;;;;;;;;;;24.70;99.90;;;24.02;49.54;96054.91;10296371;28;4098;-79
2021/08/11 07:33:33;;;;;;;;;;;24.70;99.90;;;24.33;48.95;96056.88;10287876;28;3872;-81
2021/08/11 07:38:36;;;;;;;;;;;24.80;99.90;;;24.34;47.71;96061.25;10285794;28;4250;-82
2021/08/11 07:43:39;;;;;;;;;;;25.00;99.90;;;24.25;45.73;96053.16;10285524;28;3870;-83
2021/08/11 07:48:41;;;;;;;;;;;25.00;99.90;;;24.19;45.43;96064.78;10292603;28;2348;-80
2021/08/11 07:53:44;;;;;;;;;;;24.90;99.90;;;23.69;46.14;96058.78;10299822;28;3613;-82
2021/08/11 07:58:47;;;;;;;;;;;24.80;99.90;;;23.98;45.62;96059.50;10311806;28;2627;-79
2021/08/11 08:03:50;;;;;;;;;;;24.80;99.90;;;24.37;45.51;96060.56;10305780;28;2383;-83
2021/08/11 08:08:53;;;;;;;;;;;24.80;99.90;;;24.63;45.95;96050.94;10302751;28;2291;-83
2021/08/11 08:13:56;;;;;;;;;;;25.00;99.90;;;24.88;45.88;96057.03;10292599;28;2369;-79
2021/08/11 08:18:58;;;;;;;;;;;25.30;99.90;;;24.77;46.41;96052.06;10287115;28;2400;-80
2021/08/11 08:24:03;;;;;;;;;;;25.40;99.90;;;24.26;44.95;96067.69;10319078;28;1953;-81
2021/08/11 08:29:06;;;;;;;;;;;25.30;99.90;;;24.55;44.66;96060.97;10295994;28;2309;-80
2021/08/11 08:34:09;;;;;;;;;;;25.40;99.90;;;24.74;44.94;96061.00;10288331;28;2646;-81
2021/08/11 08:39:12;;;;;;;;;;;25.20;99.90;;;25.45;45.53;96058.22;10286352;28;2102;-80
2021/08/11 08:44:14;;;;;;;;;;;25.60;99.90;;;25.71;44.48;96052.88;10285321;28;1928;-81
2021/08/11 08:49:17;;;;;;;;;;;26.00;99.90;;;25.83;42.70;96049.16;10292051;28;2301;-82
2021/08/11 08:54:21;;;;;;;;;;;26.30;99.90;;;25.98;43.29;96058.50;10288731;28;2266;-81
2021/08/11 08:59:25;;;;;;;;;;;26.30;99.90;;;26.08;41.62;96049.63;10282717;28;2317;-82
2021/08/11 09:04:29;;;;;;;;;;;26.50;99.90;;;25.98;43.77;96047.50;10285324;28;2363;-79
2021/08/11 09:09:32;;;;;;;;;;;26.50;99.90;;;25.93;43.12;96056.03;10289444;28;2341;-82
2021/08/11 09:14:35;;;;;;;;;;;26.60;99.90;;;25.40;43.94;96051.09;10319248;28;2388;-81
2021/08/11 09:19:38;;;;;;;;;;;26.30;99.90;;;25.28;44.13;96053.97;10326839;28;2556;-82
2021/08/11 09:24:41;;;;;;;;;;;26.10;99.90;;;25.69;43.80;96040.63;10326547;28;2001;-81
2021/08/11 09:29:44;;;;;;;;;;;26.30;99.90;;;25.93;42.13;96034.81;10319515;28;2396;-82
2021/08/11 09:34:46;;;;;;;;;;;26.50;99.90;;;26.01;43.11;96038.47;10319220;28;1965;-81
2021/08/11 09:39:49;;;;;;;;;;;26.70;99.90;;;25.87;42.76;96044.53;10300772;28;2362;-81
2021/08/11 09:44:52;;;;;;;;;;;26.80;99.90;;;25.47;43.03;96036.66;10296375;28;2345;-80
2021/08/11 09:49:55;;;;;;;;;;;26.70;99.90;;;25.52;43.34;96033.63;10310453;28;2352;-78
2021/08/11 09:54:59;;;;;;;;;;;26.50;99.90;;;25.81;43.54;96029.47;10307879;28;2261;-80
2021/08/11 10:00:01;;;;;;;;;;;26.40;99.90;;;26.21;42.27;96026.25;10318456;28;2308;-79
2021/08/11 10:05:04;;;;;;;;;;;26.70;99.90;;;26.21;44.11;96029.00;10299583;28;2381;-79
2021/08/11 10:10:07;;;;;;;;;;;26.90;99.90;;;26.31;43.53;96022.88;10297171;28;2058;-81
2021/08/11 10:15:10;;;;;;;;;;;27.00;99.90;;;26.77;41.87;96022.78;10307368;28;2502;-81
2021/08/11 10:20:13;;;;;;;;;;;27.30;99.90;;;27.09;42.45;96028.78;10308194;28;2301;-79
2021/08/11 10:25:15;;;;;;;;;;;27.50;99.90;;;26.90;41.62;96021.41;10315586;28;2207;-80
2021/08/11 10:30:18;;;;;;;;;;;27.60;99.90;;;26.71;41.36;96015.22;10295674;28;2372;-79
2021/08/11 10:35:21;;;;;;;;;;;27.70;99.90;;;26.68;41.94;96009.28;10313290;28;2318;-80
2021/08/11 10:40:24;;;;;;;;;;;27.60;99.70;;;26.75;41.03;96008.59;10319775;28;2713;-80
2021/08/11 10:45:26;;;;;;;;;;;27.60;98.60;;;26.79;41.75;96012.22;10283547;28;2353;-78
2021/08/11 10:50:29;;;;;;;;;;;27.60;99.50;;;26.91;41.68;96014.75;10292080;28;2873;-80
2021/08/11 10:55:32;;;;;;;;;;;27.60;99.20;;;26.96;40.91;96013.59;10313584;28;2113;-80
2021/08/11 11:00:36;;;;;;;;;;;27.60;98.20;;;26.37;40.94;96009.56;10307120;28;2435;-79
2021/08/11 11:05:39;;;;;;;;;;;27.50;96.40;;;27.07;40.74;96011.03;10289464;28;2375;-80
2021/08/11 11:10:42;;;;;;;;;;;27.60;97.90;;;27.65;40.71;96002.25;10303609;28;2330;-80
2021/08/11 11:15:46;;;;;;;;;;;28.30;98.40;;;28.73;36.61;95999.25;10309527;28;2232;-81
2021/08/11 11:20:48;;;;;;;;;;;29.70;94.40;;;28.25;37.34;96000.09;10306322;28;2323;-80
2021/08/11 11:25:51;;;;;;;;;;;29.60;92.20;;;27.14;39.67;96009.16;10300108;28;2362;-79
2021/08/11 11:30:54;;;;;;;;;;;28.80;92.20;;;26.92;41.93;96005.28;10304192;28;2273;-79
2021/08/11 11:35:57;;;;;;;;;;;28.20;95.60;;;26.95;42.00;95999.00;10305751;28;2313;-78
2021/08/11 11:41:00;;;;;;;;;;;27.90;96.10;;;26.53;42.45;95990.13;10290467;28;2222;-78
2021/08/11 11:46:03;;;;;;;;;;;27.60;96.30;;;26.66;41.82;95995.09;10300519;28;1952;-79
2021/08/11 11:51:06;;;;;;;;;;;27.60;96.20;;;27.27;40.58;96000.63;10302033;28;2374;-80
2021/08/11 11:56:09;;;;;;;;;;;27.80;94.80;;;27.62;38.95;95997.50;10306464;28;2357;-81
2021/08/11 12:01:15;;;;;;;;;;;28.00;93.60;;;27.81;40.15;95997.31;10288860;28;2321;-81
2021/08/11 12:06:18;;;;;;;;;;;28.40;95.10;;;28.08;39.24;95999.94;10292166;28;2297;-81
2021/08/11 12:11:21;;;;;;;;;;;28.60;93.90;;;28.06;39.81;95985.69;10293847;28;2075;-81
2021/08/11 12:16:24;;;;;;;;;;;28.80;93.60;;;28.00;36.66;95985.25;10293821;28;2282;-81
2021/08/11 12:21:27;;;;;;;;;;;28.90;89.70;;;27.72;38.58;95988.53;10292355;28;1948;-83
2021/08/11 12:26:30;;;;;;;;;;;28.50;90.90;;;27.67;39.05;95981.34;10271663;28;2234;-81
2021/08/11 12:31:33;;;;;;;;;;;28.30;92.00;;;27.72;38.25;95974.72;10273332;28;1747;-81
2021/08/11 12:36:38;;;;;;;;;;;28.50;91.20;;;27.38;38.60;95980.25;10325314;28;1768;-81
2021/08/11 12:41:41;;;;;;;;;;;28.40;90.00;;;27.94;39.45;95970.22;10323180;28;1881;-81
2021/08/11 12:46:44;;;;;;;;;;;28.60;91.50;;;28.22;39.33;95961.34;10320129;28;2348;-80
2021/08/11 12:51:47;;;;;;;;;;;28.80;91.90;;;28.69;36.34;95959.72;10310290;28;2402;-79
2021/08/11 12:56:50;;;;;;;;;;;29.00;89.20;;;28.86;34.80;95956.25;10307921;28;2336;-79
2021/08/11 13:01:52;;;;;;;;;;;29.30;86.50;;;28.86;35.71;95956.25;10317634;28;2196;-81
2021/08/11 13:06:56;;;;;;;;;;;29.60;86.70;;;29.06;36.34;95954.78;10314051;28;2475;-79
2021/08/11 13:12:01;;;;;;;;;;;29.70;87.20;;;28.55;36.64;95944.63;10298290;28;2265;-80
2021/08/11 13:17:04;;;;;;;;;;;29.50;87.40;;;28.18;36.61;95963.28;10302232;28;2417;-82
2021/08/11 13:22:06;;;;;;;;;;;28.90;86.40;;;27.64;35.34;95951.75;10307315;28;2057;-80
2021/08/11 13:27:09;;;;;;;;;;;28.70;83.90;;;28.29;36.30;95950.34;10306336;28;2314;-81
2021/08/11 13:32:12;;;;;;;;;;;28.80;86.30;;;27.99;35.47;95948.56;10303920;28;2222;-80
2021/08/11 13:37:15;;;;;;;;;;;28.90;84.00;;;28.18;36.58;95947.50;10310743;28;2396;-82
2021/08/11 13:42:18;;;;;;;;;;;28.90;85.30;;;28.50;34.99;95950.53;10309977;28;2233;-81
2021/08/11 13:47:21;;;;;;;;;;;29.10;84.60;;;27.93;36.25;95943.72;10302571;28;2145;-80
2021/08/11 13:52:24;;;;;;;;;;;28.90;83.80;;;27.43;37.50;95949.56;10299224;28;2254;-80
2021/08/11 13:57:28;;;;;;;;;;;28.40;85.40;;;27.19;38.23;95950.06;10313277;28;2300;-81
2021/08/11 14:02:31;;;;;;;;;;;28.20;86.40;;;27.58;37.16;95938.66;10300853;28;2077;-80
2021/08/11 14:07:34;;;;;;;;;;;28.10;86.20;;;27.54;37.57;95946.09;10300196;28;2377;-80
2021/08/11 14:12:38;;;;;;;;;;;28.30;86.10;;;27.23;38.42;95945.41;10298220;28;2226;-79
2021/08/11 14:17:41;;;;;;;;;;;28.10;86.50;;;27.40;38.31;95941.22;10297544;28;2206;-81
2021/08/11 14:22:49;;;;;;;;;;;28.00;87.10;;;27.66;37.53;95934.78;10303371;28;2278;-80
2021/08/11 14:27:52;;;;;;;;;;;28.30;85.80;;;28.10;37.59;95925.72;10297368;28;2134;-78
2021/08/11 14:32:55;;;;;;;;;;;28.60;86.60;;;27.94;37.49;95939.81;10314456;28;2376;-78
2021/08/11 14:37:58;;;;;;;;;;;28.70;85.30;;;27.77;37.40;95929.41;10307955;28;2294;-81
2021/08/11 14:43:01;;;;;;;;;;;28.60;85.10;;;27.76;38.06;95928.59;10302318;28;2239;-81
2021/08/11 14:48:08;;;;;;;;;;;28.60;85.60;;;28.09;37.53;95930.47;10304436;28;2414;-80
2021/08/11 14:53:11;;;;;;;;;;;28.60;85.70;;;27.93;36.59;95929.91;10282437;28;2701;-79
2021/08/11 14:58:13;;;;;;;;;;;28.60;84.20;;;28.45;36.48;95931.53;10296569;28;2273;-82
2021/08/11 15:03:17;;;;;;;;;;;28.90;84.70;;;28.54;35.75;95917.34;10303697;28;2251;-78
2021/08/11 15:08:20;;;;;;;;;;;29.10;84.10;;;28.48;36.28;95936.28;10292757;28;2329;-80
2021/08/11 15:13:22;;;;;;;;;;;29.20;83.90;;;28.45;35.68;95934.31;10294732;28;2392;-81
2021/08/11 15:18:25;;;;;;;;;;;29.20;83.10;;;28.33;36.16;95931.06;10305334;28;2269;-80
2021/08/11 15:23:28;;;;;;;;;;;29.10;83.40;;;28.41;35.63;95918.84;10301689;28;2474;-80
2021/08/11 15:28:31;;;;;;;;;;;29.20;82.40;;;28.21;37.19;95918.31;10303553;28;2217;-79
2021/08/11 15:33:34;;;;;;;;;;;29.00;83.90;;;28.44;35.79;95913.38;10312520;28;2288;-80
2021/08/11 15:38:37;;;;;;;;;;;29.10;82.90;;;28.38;35.21;95909.38;10333171;28;2338;-80
2021/08/11 15:43:40;;;;;;;;;;;29.00;82.10;;;28.47;35.50;95900.72;10305750;28;1542;-80
2021/08/11 15:48:43;;;;;;;;;;;29.00;82.30;;;27.97;36.86;95901.16;10291022;28;2374;-79
2021/08/11 15:53:45;;;;;;;;;;;28.90;82.30;;;27.93;36.87;95905.88;10296389;28;1762;-79
2021/08/11 15:58:48;;;;;;;;;;;28.70;82.80;;;27.68;37.70;95907.59;10313701;28;2309;-81
2021/08/11 16:03:51;;;;;;;;;;;28.60;83.40;;;27.64;37.86;95906.75;10288009;28;2630;-81
2021/08/11 16:08:54;;;;;;;;;;;28.50;83.30;;;27.31;36.77;95897.38;10294373;28;2254;-79
2021/08/11 16:13:57;;;;;;;;;;;28.30;82.10;;;27.21;37.16;95898.84;10289825;28;2275;-78
2021/08/11 16:18:59;;;;;;;;;;;28.20;82.40;;;27.28;37.66;95889.06;10303349;28;2301;-79
2021/08/11 16:24:02;;;;;;;;;;;28.00;83.50;;;27.07;38.84;95895.16;10283101;28;2194;-78
2021/08/11 16:29:05;;;;;;;;;;;28.00;84.50;;;26.83;38.57;95896.41;10301592;28;1971;-80
2021/08/11 16:34:08;;;;;;;;;;;27.80;83.40;;;26.76;39.20;95896.31;10297178;28;2323;-79
2021/08/11 16:39:11;;;;;;;;;;;27.60;84.60;;;26.62;39.52;95891.44;10303477;28;2361;-79
2021/08/11 16:44:13;;;;;;;;;;;27.50;84.90;;;26.82;39.81;95890.09;10303832;28;2317;-78
2021/08/11 16:49:16;;;;;;;;;;;27.50;85.80;;;26.71;39.71;95891.94;10289978;28;2373;-80
2021/08/11 16:54:19;;;;;;;;;;;27.60;85.00;;;26.85;39.25;95892.13;10310926;28;2388;-79
2021/08/11 16:59:22;;;;;;;;;;;27.60;84.80;;;26.76;38.63;95894.34;10303923;28;1928;-80
2021/08/11 17:04:25;;;;;;;;;;;27.60;84.30;;;26.47;39.62;95903.44;10293939;28;2349;-79
2021/08/11 17:09:27;;;;;;;;;;;27.40;84.40;;;26.24;41.10;95898.75;10285529;28;2294;-78
2021/08/11 17:14:32;;;;;;;;;;;27.20;85.90;;;26.04;41.58;95902.78;10298036;28;2344;-80
2021/08/11 17:19:35;;;;;;;;;;;27.00;86.60;;;25.92;41.74;95905.75;10300797;28;2207;-79
2021/08/11 17:24:38;;;;;;;;;;;26.90;86.70;;;25.82;42.56;95899.69;10307006;28;2377;-78
2021/08/11 17:29:41;;;;;;;;;;;26.70;87.50;;;25.67;42.58;95900.59;10312251;28;2268;-80
2021/08/11 17:34:44;;;;;;;;;;;26.60;87.70;;;25.52;42.84;95912.53;10314886;28;2412;-79
2021/08/11 17:39:46;;;;;;;;;;;26.40;88.10;;;25.41;43.06;95914.28;10302648;28;2280;-80
2021/08/11 17:44:49;;;;;;;;;;;26.30;88.60;;;25.28;44.01;95916.41;10297407;28;2250;-79
2021/08/11 17:49:52;;;;;;;;;;;26.20;89.20;;;25.17;43.92;95910.69;10289381;28;2286;-79
2021/08/11 17:54:55;;;;;;;;;;;26.10;89.60;;;24.98;44.53;95913.44;10293026;28;2309;-79
2021/08/11 17:59:57;;;;;;;;;;;26.00;90.10;;;24.92;45.34;95914.91;10298737;28;2338;-79
2021/08/11 18:05:00;;;;;;;;;;;25.80;90.40;;;24.90;45.80;95923.50;10305098;28;2650;-81
2021/08/11 18:10:03;;;;;;;;;;;25.80;91.00;;;24.83;45.71;95925.31;10301229;28;2438;-79
2021/08/11 18:15:06;;;;;;;;;;;25.70;91.30;;;24.65;46.55;95927.69;10295171;28;2270;-79
2021/08/11 18:20:09;;;;;;;;;;;25.60;92.00;;;24.47;47.27;95932.81;10305847;28;2215;-79
2021/08/11 18:25:11;;;;;;;;;;;25.50;92.80;;;24.30;47.90;95944.94;10316588;28;1991;-79
2021/08/11 18:30:16;;;;;;;;;;;25.30;93.50;;;24.07;48.77;95941.28;10299043;28;2230;-79
2021/08/11 18:35:18;;;;;;;;;;;25.10;94.30;;;23.90;49.10;95950.69;10310837;28;2651;-79
2021/08/11 18:40:21;;;;;;;;;;;25.00;94.80;;;23.71;49.58;95952.19;10285547;28;2312;-79
2021/08/11 18:45:24;;;;;;;;;;;24.80;95.40;;;23.60;50.23;95964.81;10300024;28;2342;-78
2021/08/11 18:50:27;;;;;;;;;;;24.70;96.10;;;23.46;50.74;95987.16;10294116;28;2481;-78
2021/08/11 18:55:30;;;;;;;;;;;24.50;96.60;;;23.42;51.13;95989.03;10294923;28;2322;-81
2021/08/11 19:00:32;;;;;;;;;;;24.40;97.20;;;23.28;51.78;95996.06;10320588;28;2263;-80
2021/08/11 19:05:35;;;;;;;;;;;24.30;97.90;;;23.10;52.41;95999.13;10311123;28;2452;-80
2021/08/11 19:10:39;;;;;;;;;;;24.20;98.50;;;22.96;53.28;95997.91;10322084;28;2334;-79
2021/08/11 19:15:42;;;;;;;;;;;24.00;99.20;;;23.06;52.70;95995.47;10311380;28;2341;-79
2021/08/11 19:20:45;;;;;;;;;;;23.90;99.40;;;22.98;53.32;96007.38;10296898;28;2322;-78
2021/08/11 19:25:48;;;;;;;;;;;23.90;99.90;;;22.75;54.28;96006.28;10306686;28;2475;-79
2021/08/11 19:30:51;;;;;;;;;;;23.80;99.90;;;22.74;54.83;96010.16;10300084;28;2424;-80
2021/08/11 19:35:53;;;;;;;;;;;23.70;99.90;;;22.71;54.88;96019.06;10307803;28;2324;-79
2021/08/11 19:40:56;;;;;;;;;;;23.60;99.90;;;22.52;55.65;96025.94;10307264;28;2223;-80
2021/08/11 19:45:59;;;;;;;;;;;23.50;99.90;;;22.51;56.25;96021.59;10310408;28;2424;-79
2021/08/11 19:51:03;;;;;;;;;;;23.40;99.90;;;22.37;57.03;96026.63;10298443;28;2064;-78
2021/08/11 19:56:06;;;;;;;;;;;23.30;99.90;;;22.20;57.98;96022.16;10300202;28;2283;-80
2021/08/11 20:01:09;;;;;;;;;;;23.20;99.90;;;22.11;58.52;96030.50;10302054;28;2263;-78
2021/08/11 20:06:12;;;;;;;;;;;23.10;99.90;;;22.03;58.88;96031.38;10303080;28;2349;-79
2021/08/11 20:11:15;;;;;;;;;;;23.00;99.90;;;21.90;59.36;96029.78;10303349;28;2328;-80
2021/08/11 20:16:17;;;;;;;;;;;22.90;99.90;;;21.69;60.37;96034.50;10306345;28;2321;-79
2021/08/11 20:21:20;;;;;;;;;;;22.70;99.90;;;21.62;60.53;96034.25;10294303;28;2393;-78
2021/08/11 20:26:23;;;;;;;;;;;22.60;99.90;;;21.58;61.02;96034.16;10295246;28;2313;-80
2021/08/11 20:31:26;;;;;;;;;;;22.50;99.90;;;21.56;61.22;96031.72;10309507;28;2317;-80
2021/08/11 20:36:28;;;;;;;;;;;22.50;99.90;;;21.48;61.58;96040.03;10304222;28;2307;-79
2021/08/11 20:41:31;;;;;;;;;;;22.40;99.90;;;21.41;61.75;96040.59;10299696;28;2711;-81
2021/08/11 20:46:35;;;;;;;;;;;22.30;99.90;;;21.29;62.71;96048.75;10299867;28;2429;-80
2021/08/11 20:51:37;;;;;;;;;;;22.20;99.90;;;21.19;62.96;96049.13;10292136;28;2899;-78
2021/08/11 20:56:40;;;;;;;;;;;22.20;99.90;;;21.02;64.04;96050.06;10289414;28;2388;-78
2021/08/11 21:01:43;;;;;;;;;;;22.10;99.90;;;20.94;64.28;96048.22;10291172;28;2413;-80
2021/08/11 21:06:46;;;;;;;;;;;22.00;99.90;;;20.85;64.65;96045.53;10292386;28;2702;-81
2021/08/11 21:11:49;;;;;;;;;;;21.90;99.90;;;20.76;65.11;96045.59;10285277;28;2409;-79
2021/08/11 21:16:51;;;;;;;;;;;21.80;99.90;;;20.79;65.40;96052.31;10298332;28;2698;-79
2021/08/11 21:21:54;;;;;;;;;;;21.60;99.90;;;20.63;66.15;96046.66;10307680;28;2437;-81
2021/08/11 21:26:57;;;;;;;;;;;21.60;99.90;;;20.67;66.20;96046.78;10300375;28;2338;-78
2021/08/11 21:32:00;;;;;;;;;;;21.60;99.90;;;20.55;66.54;96049.41;10317286;28;2564;-80
2021/08/11 21:37:02;;;;;;;;;;;21.60;99.90;;;20.39;67.71;96044.50;10300479;28;2471;-80
2021/08/11 21:42:05;;;;;;;;;;;21.50;99.90;;;20.23;68.06;96054.38;10316816;28;2409;-80
2021/08/11 21:47:08;;;;;;;;;;;21.30;99.90;;;20.17;68.66;96058.44;10331495;28;2251;-78
2021/08/11 21:52:11;;;;;;;;;;;21.20;99.90;;;20.13;69.58;96058.28;10291479;28;2246;-79
2021/08/11 21:57:13;;;;;;;;;;;21.10;99.90;;;20.13;69.38;96063.75;10295446;28;2362;-79
2021/08/11 22:02:16;;;;;;;;;;;21.10;99.90;;;20.07;69.96;96066.97;10281754;28;2369;-80
2021/08/11 22:07:19;;;;;;;;;;;21.10;99.90;;;19.92;71.52;96069.13;10302179;28;2290;-80
2021/08/11 22:12:22;;;;;;;;;;;21.00;99.90;;;19.80;72.11;96073.66;10315138;28;2345;-79
2021/08/11 22:17:25;;;;;;;;;;;20.90;99.90;;;19.58;73.55;96069.19;10320025;28;2559;-80
2021/08/11 22:22:27;;;;;;;;;;;20.60;99.90;;;19.57;73.37;96064.84;10329619;28;2773;-80
2021/08/11 22:27:30;;;;;;;;;;;20.60;99.90;;;19.57;74.13;96062.13;10335944;28;2211;-80
2021/08/11 22:32:33;;;;;;;;;;;20.60;99.90;;;19.49;74.68;96061.00;10325755;28;2294;-80
2021/08/11 22:37:36;;;;;;;;;;;20.50;99.90;;;19.61;73.79;96068.56;10321293;28;2441;-81
2021/08/11 22:42:38;;;;;;;;;;;20.60;99.90;;;19.53;74.49;96066.59;10321778;28;2273;-79
2021/08/11 22:47:41;;;;;;;;;;;20.50;99.90;;;19.40;75.30;96058.31;10318188;28;1692;-81
2021/08/11 22:52:44;;;;;;;;;;;20.40;99.90;;;19.34;75.67;96067.78;10323493;28;2384;-79
2021/08/11 22:57:46;;;;;;;;;;;20.40;99.90;;;19.28;76.48;96060.88;10320739;28;1700;-79
2021/08/11 23:02:49;;;;;;;;;;;20.30;99.90;;;19.21;76.83;96067.94;10331339;28;2071;-78
2021/08/11 23:07:53;;;;;;;;;;;20.20;99.90;;;19.10;77.66;96056.56;10314705;28;2488;-79
2021/08/11 23:12:56;;;;;;;;;;;20.10;99.90;;;19.02;78.31;96055.44;10323069;28;1887;-79